Time;durP1;ratioP1;P1;durP2;ratioP2;P2;SDS_P1;SDS_P2;PMS_P1;PMS_P2;Temp;Humidity;BMP_temperature;BMP_pressure;BME280_temperature;BME280_humidity;BME280_pressure;Samples;Min_cycle;Max_cycle;Signal;HPM_P1;HPM_P2
2022/07/30 06:59:11;;;;;;;14.13;10.53;;;18.20;73.50;;;;;;5069424;28;20597;-46
2022/07/30 07:01:40;;;;;;;9.67;8.60;;;18.70;74.80;;;;;;5072004;28;20449;-47
2022/07/30 07:04:09;;;;;;;9.93;8.60;;;19.20;74.90;;;;;;5070334;28;20457;-48
2022/07/30 07:06:37;;;;;;;10.17;9.30;;;19.70;73.50;;;;;;5069023;28;20446;-48
2022/07/30 07:09:05;;;;;;;9.60;8.10;;;20.00;72.00;;;;;;5071106;28;20967;-48
2022/07/30 07:11:33;;;;;;;10.50;7.70;;;20.40;70.70;;;;;;5068772;28;20449;-48
2022/07/30 07:14:01;;;;;;;9.90;8.87;;;20.70;70.50;;;;;;5067322;28;20938;-47
2022/07/30 07:16:31;;;;;;;8.23;7.50;;;21.00;69.60;;;;;;5071328;28;20458;-47
2022/07/30 07:18:58;;;;;;;8.87;7.97;;;21.30;67.80;;;;;;5067900;28;20481;-47
2022/07/30 07:21:25;;;;;;;11.53;7.53;;;21.60;67.80;;;;;;5070357;28;20525;-47
2022/07/30 07:23:52;;;;;;;8.63;7.80;;;21.80;67.20;;;;;;5075168;28;20941;-47
2022/07/30 07:26:19;;;;;;;7.83;7.13;;;22.10;66.60;;;;;;5067452;28;20828;-48
2022/07/30 07:28:45;;;;;;;9.80;8.80;;;22.30;65.70;;;;;;5063979;28;20452;-45
2022/07/30 07:31:18;;;;;;;9.33;8.43;;;22.50;64.20;;;;;;5073514;28;20484;-46
2022/07/30 07:34:05;;;;;;;8.13;6.90;;;22.70;64.30;;;;;;5069708;28;20510;-45
2022/07/30 07:36:34;;;;;;;9.33;8.53;;;22.90;64.20;;;;;;5067605;28;20983;-45
2022/07/30 07:39:00;;;;;;;8.33;7.53;;;23.00;63.00;;;;;;5068354;28;20492;-45
2022/07/30 07:41:27;;;;;;;8.50;6.27;;;23.20;62.30;;;;;;5097585;27;20453;-44
2022/07/30 07:43:54;;;;;;;8.93;6.53;;;23.40;62.20;;;;;;5069897;28;20448;-45
2022/07/30 07:46:21;;;;;;;8.23;7.20;;;23.50;62.20;;;;;;5072027;28;20454;-45
2022/07/30 07:49:00;;;;;;;9.30;6.70;;;23.60;62.20;;;;;;5072274;28;20513;-45
2022/07/30 07:51:27;;;;;;;12.57;8.03;;;23.70;62.30;;;;;;5063878;28;20461;-45
2022/07/30 07:54:14;;;;;;;8.20;7.30;;;23.80;61.00;;;;;;5067202;28;20491;-45
2022/07/30 07:56:50;;;;;;;9.17;6.67;;;24.00;60.80;;;;;;5062381;28;20476;-44
2022/07/30 07:59:18;;;;;;;8.80;7.47;;;24.10;59.60;;;;;;5062212;28;20582;-44
2022/07/30 08:01:46;;;;;;;9.83;6.43;;;24.20;59.40;;;;;;5049880;28;20469;-44
2022/07/30 08:04:19;;;;;;;8.73;6.70;;;24.30;59.40;;;;;;5052669;28;20845;-44
2022/07/30 08:06:46;;;;;;;10.47;8.00;;;24.40;58.80;;;;;;5052559;28;21017;-44
2022/07/30 08:09:13;;;;;;;7.13;6.43;;;24.50;58.50;;;;;;5043351;28;20454;-44
2022/07/30 08:11:40;;;;;;;8.93;7.50;;;24.60;57.80;;;;;;5044365;28;20554;-44
2022/07/30 08:14:07;;;;;;;7.10;6.40;;;24.70;58.00;;;;;;5044902;28;20556;-44
2022/07/30 08:16:34;;;;;;;8.57;6.23;;;24.80;58.10;;;;;;5041245;28;20468;-44
2022/07/30 08:19:01;;;;;;;8.33;6.67;;;25.00;57.50;;;;;;5036134;28;20525;-43
2022/07/30 08:21:27;;;;;;;8.00;7.20;;;25.10;57.60;;;;;;5041367;28;20832;-43
2022/07/30 08:23:54;;;;;;;10.80;7.60;;;25.20;57.40;;;;;;5035441;28;20458;-43
2022/07/30 08:26:21;;;;;;;7.53;6.43;;;25.30;57.40;;;;;;5037060;28;20868;-43
2022/07/30 08:28:47;;;;;;;7.37;6.77;;;25.40;57.20;;;;;;5036160;28;20451;-43
2022/07/30 08:31:15;;;;;;;6.97;6.37;;;25.50;56.80;;;;;;5041553;28;20457;-43
2022/07/30 08:33:41;;;;;;;8.80;6.70;;;25.60;56.00;;;;;;5040152;28;20464;-43
2022/07/30 08:36:08;;;;;;;8.60;6.13;;;25.70;55.50;;;;;;5038236;28;20459;-43
2022/07/30 08:38:37;;;;;;;8.83;6.13;;;25.80;56.10;;;;;;5045010;28;20489;-43
2022/07/30 08:41:04;;;;;;;7.13;6.30;;;25.90;55.20;;;;;;5040419;28;20460;-43
2022/07/30 08:43:31;;;;;;;8.00;6.83;;;25.90;55.20;;;;;;5036627;28;20458;-43
2022/07/30 08:45:59;;;;;;;6.07;5.57;;;26.00;55.30;;;;;;5037676;28;20840;-43
2022/07/30 08:48:27;;;;;;;8.60;5.30;;;26.10;54.90;;;;;;5036391;28;20574;-43
2022/07/30 08:50:54;;;;;;;8.47;5.63;;;26.20;54.20;;;;;;5037314;28;20496;-43
2022/07/30 08:53:22;;;;;;;7.73;5.30;;;26.30;53.50;;;;;;5038520;28;20488;-43
2022/07/30 08:55:49;;;;;;;8.07;5.60;;;26.30;52.80;;;;;;5042642;28;20461;-43
2022/07/30 08:58:27;;;;;;;6.90;4.63;;;26.40;52.00;;;;;;5035102;28;20501;-43
2022/07/30 09:00:54;;;;;;;11.83;5.50;;;26.50;51.90;;;;;;5031701;28;20464;-43
2022/07/30 09:03:26;;;;;;;6.80;4.33;;;26.50;51.60;;;;;;5038113;28;20465;-43
2022/07/30 09:05:52;;;;;;;11.63;5.67;;;26.60;51.10;;;;;;5036706;28;20462;-43
2022/07/30 09:08:19;;;;;;;6.43;4.50;;;26.70;50.20;;;;;;5031685;28;20959;-43
2022/07/30 09:10:47;;;;;;;4.40;4.00;;;26.80;50.20;;;;;;5035999;28;20463;-43
2022/07/30 09:13:26;;;;;;;8.50;4.23;;;26.90;50.20;;;;;;5033513;28;20498;-43
2022/07/30 09:15:54;;;;;;;6.50;4.20;;;27.00;50.80;;;;;;5040869;28;20466;-43
2022/07/30 09:18:43;;;;;;;5.70;4.03;;;27.10;49.80;;;;;;5041549;28;20960;-44
2022/07/30 09:21:28;;;;;;;4.40;4.00;;;27.20;49.30;;;;;;5070201;28;20973;-43
2022/07/30 09:24:10;;;;;;;6.73;4.03;;;27.30;48.30;;;;;;5040521;28;20466;-43
2022/07/30 09:26:54;;;;;;;5.00;4.57;;;27.20;47.80;;;;;;5037481;28;20508;-44
2022/07/30 09:29:26;;;;;;;4.00;3.70;;;27.10;46.90;;;;;;5037176;28;20465;-43
2022/07/30 09:31:56;;;;;;;4.63;4.03;;;27.10;47.50;;;;;;5035668;28;21018;-44
2022/07/30 09:34:29;;;;;;;6.97;4.37;;;27.10;47.10;;;;;;5032798;28;20465;-44
2022/07/30 09:36:58;;;;;;;5.20;3.30;;;27.10;47.00;;;;;;5030718;28;20481;-44
2022/07/30 09:39:29;;;;;;;4.50;3.57;;;27.10;46.80;;;;;;5026102;28;21396;-44
2022/07/30 09:41:57;;;;;;;6.33;3.53;;;27.20;47.10;;;;;;5032946;28;20458;-44
2022/07/30 09:44:25;;;;;;;3.90;3.60;;;27.20;47.10;;;;;;5040494;28;20840;-44
2022/07/30 09:46:52;;;;;;;4.80;3.90;;;27.30;46.70;;;;;;5038735;28;20451;-43
2022/07/30 09:49:25;;;;;;;4.10;3.40;;;27.40;46.30;;;;;;5038665;28;20465;-43
2022/07/30 09:51:53;;;;;;;3.00;2.80;;;27.50;46.00;;;;;;5036786;28;20467;-43
2022/07/30 09:54:46;;;;;;;2.70;2.50;;;27.60;44.90;;;;;;5032257;28;20904;-43
2022/07/30 09:57:18;;;;;;;3.70;2.87;;;27.70;44.20;;;;;;5035022;28;20532;-44
2022/07/30 09:59:57;;;;;;;2.80;2.50;;;27.80;43.30;;;;;;5045924;28;20465;-44
2022/07/30 10:02:32;;;;;;;3.23;2.23;;;27.80;41.60;;;;;;5031970;28;20385;-45
2022/07/30 10:05:10;;;;;;;4.13;3.40;;;28.00;41.60;;;;;;5038196;28;20226;-45
2022/07/30 10:07:54;;;;;;;3.20;2.80;;;28.10;42.00;;;;;;5049339;28;20518;-45
2022/07/30 10:10:24;;;;;;;3.33;3.03;;;28.10;42.60;;;;;;5033940;28;20244;-46
2022/07/30 10:12:57;;;;;;;3.80;3.00;;;28.10;41.90;;;;;;5035800;28;20493;-45
2022/07/30 10:15:28;;;;;;;5.13;2.97;;;28.10;42.20;;;;;;5030243;28;20450;-46
2022/07/30 10:17:59;;;;;;;5.40;4.20;;;28.20;42.50;;;;;;5032178;28;22543;-46
2022/07/30 10:20:26;;;;;;;3.77;2.90;;;28.20;42.30;;;;;;5040725;28;20819;-46
2022/07/30 10:22:53;;;;;;;2.97;2.77;;;28.30;42.20;;;;;;5034900;28;20614;-46
2022/07/30 10:25:22;;;;;;;3.17;2.77;;;28.40;42.10;;;;;;5036781;28;20446;-46
2022/07/30 10:27:54;;;;;;;4.67;3.07;;;28.50;42.40;;;;;;5037097;28;20208;-47
2022/07/30 10:30:26;;;;;;;3.30;3.10;;;28.50;42.70;;;;;;5033215;28;20219;-47
2022/07/30 10:32:57;;;;;;;3.23;3.03;;;28.60;42.50;;;;;;5051363;28;20261;-47
2022/07/30 10:35:25;;;;;;;3.10;2.90;;;28.60;42.60;;;;;;5031641;28;20337;-47
2022/07/30 10:38:08;;;;;;;3.30;2.60;;;28.70;42.30;;;;;;5038349;28;20293;-47
2022/07/30 10:40:51;;;;;;;5.40;3.10;;;28.60;42.20;;;;;;5034434;28;20604;-47
2022/07/30 10:43:57;;;;;;;4.37;3.33;;;28.50;42.40;;;;;;5035425;28;20219;-47
2022/07/30 10:47:04;;;;;;;3.80;2.80;;;28.30;41.90;;;;;;5036433;28;20644;-50
2022/07/30 10:49:35;;;;;;;3.70;3.40;;;28.10;42.00;;;;;;5037497;28;20931;-50
2022/07/30 10:52:09;;;;;;;3.73;2.80;;;27.90;42.40;;;;;;5036787;28;20217;-50
2022/07/30 10:54:36;;;;;;;3.63;2.83;;;27.70;42.30;;;;;;5032315;28;21017;-50
2022/07/30 10:57:17;;;;;;;3.33;3.03;;;27.50;42.50;;;;;;5036520;28;20487;-50
2022/07/30 11:00:00;;;;;;;2.80;2.60;;;27.40;42.70;;;;;;5038437;28;21017;-50
2022/07/30 11:02:33;;;;;;;4.40;3.10;;;27.30;43.00;;;;;;5034868;28;20466;-50
2022/07/30 11:05:16;;;;;;;3.83;3.53;;;27.20;43.70;;;;;;5031087;28;20458;-48
2022/07/30 11:07:46;;;;;;;4.30;3.03;;;27.00;43.50;;;;;;5036134;28;20481;-48
2022/07/30 11:10:41;;;;;;;3.13;2.93;;;27.00;43.50;;;;;;5041448;28;20523;-48
2022/07/30 11:13:09;;;;;;;6.60;3.40;;;26.90;43.90;;;;;;5030421;28;20606;-46
2022/07/30 11:15:56;;;;;;;3.67;3.37;;;26.80;43.60;;;;;;5034510;28;20465;-43
2022/07/30 11:18:25;;;;;;;3.80;3.40;;;26.80;43.70;;;;;;5035912;28;20488;-44
2022/07/30 11:21:19;;;;;;;3.90;3.60;;;26.70;44.40;;;;;;5034418;28;20893;-45
2022/07/30 11:23:48;;;;;;;3.63;3.30;;;26.70;44.40;;;;;;5036541;28;21037;-44
2022/07/30 11:26:40;;;;;;;4.00;3.03;;;26.70;44.50;;;;;;5032404;28;20466;-46
2022/07/30 11:29:27;;;;;;;3.10;2.90;;;26.70;44.50;;;;;;5039237;28;20208;-46
2022/07/30 11:32:27;;;;;;;3.57;3.30;;;26.60;44.20;;;;;;5037928;28;20477;-46
2022/07/30 11:35:12;;;;;;;5.23;3.10;;;26.60;44.00;;;;;;5038054;28;20457;-46
2022/07/30 11:37:57;;;;;;;4.30;3.60;;;26.60;44.20;;;;;;5034450;28;20970;-45
2022/07/30 11:40:48;;;;;;;3.50;2.73;;;26.60;43.90;;;;;;5038303;28;20461;-44
2022/07/30 11:43:31;;;;;;;2.90;2.70;;;26.60;43.80;;;;;;5034494;28;20451;-43
2022/07/30 11:46:09;;;;;;;3.00;2.57;;;26.60;44.20;;;;;;5039624;28;20538;-44
2022/07/30 11:48:39;;;;;;;3.00;2.80;;;26.60;43.50;;;;;;5039745;28;20457;-44
2022/07/30 11:51:07;;;;;;;3.87;2.60;;;26.60;43.00;;;;;;5036170;28;20464;-43
2022/07/30 11:53:34;;;;;;;3.23;2.83;;;26.70;42.80;;;;;;5031826;28;20449;-43
2022/07/30 11:56:02;;;;;;;4.70;2.50;;;26.70;43.20;;;;;;5045563;28;20483;-43
2022/07/30 11:58:30;;;;;;;3.03;2.83;;;26.80;43.70;;;;;;5037994;28;20493;-43
2022/07/30 12:01:11;;;;;;;3.23;2.57;;;26.80;42.90;;;;;;5034863;28;20924;-43
2022/07/30 12:03:43;;;;;;;11.97;3.20;;;26.80;42.50;;;;;;5033940;28;20970;-43
2022/07/30 12:06:16;;;;;;;3.20;2.70;;;26.80;42.60;;;;;;5063994;28;20464;-43
2022/07/30 12:08:45;;;;;;;3.67;2.77;;;26.80;42.80;;;;;;5038964;28;20449;-43
2022/07/30 12:11:13;;;;;;;3.60;3.30;;;26.80;42.50;;;;;;5052687;28;20477;-43
2022/07/30 12:13:42;;;;;;;3.63;2.63;;;26.80;42.40;;;;;;5040110;28;20874;-43
2022/07/30 12:16:14;;;;;;;2.60;2.40;;;26.90;42.30;;;;;;5040477;28;20507;-43
2022/07/30 12:18:42;;;;;;;3.10;2.70;;;26.90;42.50;;;;;;5035069;28;20481;-43
2022/07/30 12:21:16;;;;;;;3.03;2.80;;;27.00;41.70;;;;;;5039043;28;20853;-43
2022/07/30 12:23:59;;;;;;;3.13;2.83;;;27.00;42.00;;;;;;5036112;28;20471;-43
2022/07/30 12:26:28;;;;;;;2.73;2.50;;;27.10;42.40;;;;;;5042565;28;20454;-43
2022/07/30 12:28:56;;;;;;;3.63;2.37;;;27.20;41.30;;;;;;5036432;28;20465;-43
2022/07/30 12:31:24;;;;;;;2.67;2.47;;;27.20;41.60;;;;;;5033876;28;21540;-43
2022/07/30 12:33:50;;;;;;;2.23;2.10;;;27.30;41.60;;;;;;5040538;28;20218;-43
2022/07/30 12:36:32;;;;;;;3.33;2.50;;;27.30;41.80;;;;;;5043299;28;20473;-45
2022/07/30 12:39:00;;;;;;;2.87;2.33;;;27.40;41.20;;;;;;5038910;28;20579;-43
2022/07/30 12:41:59;;;;;;;2.70;2.57;;;27.40;40.70;;;;;;5040069;28;20963;-44
2022/07/30 12:44:41;;;;;;;3.40;2.90;;;27.30;40.60;;;;;;5026939;28;20473;-43
2022/07/30 12:47:22;;;;;;;4.40;2.53;;;27.30;41.20;;;;;;5037784;28;20461;-43
2022/07/30 12:49:50;;;;;;;3.60;2.90;;;27.20;40.90;;;;;;5031476;28;20747;-43
2022/07/30 12:52:27;;;;;;;2.77;2.50;;;27.20;41.10;;;;;;5041512;28;20473;-43
2022/07/30 12:55:02;;;;;;;2.80;2.50;;;27.20;40.90;;;;;;5031005;28;20831;-43
2022/07/30 12:57:51;;;;;;;4.53;2.67;;;27.20;40.90;;;;;;5042530;28;20961;-43
2022/07/30 13:00:18;;;;;;;2.63;2.40;;;27.20;40.60;;;;;;5058294;28;21346;-43
2022/07/30 13:02:44;;;;;;;3.00;2.80;;;27.30;40.50;;;;;;5066891;28;20468;-43
2022/07/30 13:05:11;;;;;;;3.00;2.77;;;27.30;40.40;;;;;;5052479;28;20961;-43
2022/07/30 13:07:58;;;;;;;2.87;2.60;;;27.30;40.20;;;;;;5043798;28;20468;-43
2022/07/30 13:10:25;;;;;;;3.17;2.87;;;27.30;39.80;;;;;;5057107;28;20448;-43
2022/07/30 13:12:57;;;;;;;3.00;2.23;;;27.40;40.90;;;;;;5046969;28;20472;-43
2022/07/30 13:15:24;;;;;;;3.20;2.90;;;27.40;40.20;;;;;;5055424;28;20466;-43
2022/07/30 13:17:50;;;;;;;3.10;2.80;;;27.50;40.40;;;;;;5052237;28;20471;-43
2022/07/30 13:20:17;;;;;;;3.30;2.50;;;27.50;39.80;;;;;;5056386;28;20507;-43
2022/07/30 13:22:44;;;;;;;2.10;1.90;;;27.50;39.80;;;;;;5070326;28;21520;-43
2022/07/30 13:25:11;;;;;;;3.87;2.63;;;27.60;39.10;;;;;;5053275;28;20464;-43
2022/07/30 13:27:39;;;;;;;3.00;2.70;;;27.50;39.10;;;;;;5038741;28;20804;-43
2022/07/30 13:30:06;;;;;;;2.97;2.67;;;27.60;39.90;;;;;;5057439;28;20461;-43
2022/07/30 13:32:34;;;;;;;2.90;2.63;;;27.60;39.90;;;;;;5038907;28;20462;-44
2022/07/30 13:35:01;;;;;;;4.60;2.60;;;27.60;39.50;;;;;;5064612;28;20464;-46
2022/07/30 13:37:29;;;;;;;3.23;2.80;;;27.70;39.00;;;;;;5102625;28;20464;-46
2022/07/30 13:40:05;;;;;;;4.67;2.40;;;27.60;39.90;;;;;;5065826;28;20485;-46
2022/07/30 13:42:32;;;;;;;3.27;2.53;;;27.60;40.00;;;;;;5066736;28;20453;-46
2022/07/30 13:44:59;;;;;;;5.33;2.77;;;27.60;39.70;;;;;;5085079;28;20470;-46
2022/07/30 13:47:25;;;;;;;4.63;2.53;;;27.60;39.70;;;;;;5087293;28;20452;-46
2022/07/30 13:49:52;;;;;;;4.47;2.70;;;27.60;40.50;;;;;;5081300;28;20461;-46
2022/07/30 13:52:19;;;;;;;2.90;2.37;;;27.60;40.10;;;;;;5093136;28;20461;-46
2022/07/30 13:54:47;;;;;;;2.80;2.40;;;27.70;40.10;;;;;;5082537;28;20479;-46
2022/07/30 13:57:13;;;;;;;2.83;2.60;;;27.70;40.00;;;;;;5083815;28;20493;-46
2022/07/30 13:59:40;;;;;;;3.40;2.70;;;27.70;39.60;;;;;;5097052;28;20225;-46
2022/07/30 14:02:07;;;;;;;3.20;2.90;;;27.70;39.20;;;;;;5082661;28;20446;-46
2022/07/30 14:04:34;;;;;;;4.87;3.03;;;27.60;39.30;;;;;;5089927;28;20210;-46
2022/07/30 14:07:01;;;;;;;2.70;2.50;;;27.60;39.40;;;;;;5082225;28;20202;-46
2022/07/30 14:09:28;;;;;;;2.80;2.60;;;27.70;39.60;;;;;;5111381;28;20263;-46
2022/07/30 14:11:55;;;;;;;2.20;2.10;;;27.70;39.70;;;;;;5104612;28;20837;-46
2022/07/30 14:14:21;;;;;;;5.43;2.70;;;27.80;39.90;;;;;;5104295;28;20269;-46
2022/07/30 14:16:51;;;;;;;6.10;2.47;;;27.80;39.40;;;;;;5084594;28;20270;-46
2022/07/30 14:19:19;;;;;;;4.17;2.63;;;27.80;39.20;;;;;;5083133;28;20214;-46
2022/07/30 14:21:51;;;;;;;2.47;2.27;;;27.80;39.30;;;;;;5104179;28;20456;-46
2022/07/30 14:24:19;;;;;;;2.43;2.23;;;27.80;39.60;;;;;;5105228;28;20441;-46
2022/07/30 14:26:46;;;;;;;3.83;2.33;;;27.80;39.60;;;;;;5105618;28;20444;-46
2022/07/30 14:29:13;;;;;;;4.87;2.40;;;27.80;40.00;;;;;;5096306;28;20213;-43
2022/07/30 14:31:40;;;;;;;3.17;2.13;;;27.80;39.60;;;;;;5077376;28;20440;-44
2022/07/30 14:34:07;;;;;;;2.67;2.27;;;27.80;39.30;;;;;;5057482;28;20971;-44
2022/07/30 14:36:36;;;;;;;3.60;2.77;;;27.80;39.00;;;;;;5065325;28;20461;-44
2022/07/30 14:39:03;;;;;;;3.53;2.60;;;27.70;39.20;;;;;;5071741;28;20480;-45
2022/07/30 14:41:30;;;;;;;246.97;22.93;;;27.80;39.50;;;;;;5067554;28;20877;-45
2022/07/30 14:43:57;;;;;;;10.57;3.90;;;27.80;39.40;;;;;;5069271;28;20956;-45
2022/07/30 14:46:24;;;;;;;3.73;2.27;;;27.80;39.50;;;;;;5064834;28;20224;-45
2022/07/30 14:48:51;;;;;;;3.47;2.17;;;27.90;39.40;;;;;;5075557;28;20980;-45
2022/07/30 14:51:17;;;;;;;3.13;2.07;;;27.90;38.80;;;;;;5071120;28;20202;-45
2022/07/30 14:53:51;;;;;;;3.97;2.57;;;27.90;38.90;;;;;;5075522;28;20213;-45
2022/07/30 14:56:18;;;;;;;2.37;2.17;;;27.90;38.90;;;;;;5076920;28;20635;-45
2022/07/30 14:58:45;;;;;;;2.03;1.73;;;28.00;38.30;;;;;;5090571;28;20718;-44
2022/07/30 15:01:12;;;;;;;3.33;1.70;;;28.00;39.00;;;;;;5070224;28;20232;-44
2022/07/30 15:03:43;;;;;;;2.10;2.00;;;28.00;38.30;;;;;;5057017;28;20201;-44
2022/07/30 15:06:11;;;;;;;3.60;3.27;;;27.90;39.00;;;;;;5075227;28;20217;-45
2022/07/30 15:08:38;;;;;;;3.87;3.50;;;28.00;38.90;;;;;;5090142;28;20760;-45
2022/07/30 15:11:05;;;;;;;2.77;2.57;;;28.00;38.20;;;;;;5076598;28;20211;-45
2022/07/30 15:13:35;;;;;;;2.10;1.80;;;28.00;38.10;;;;;;5076072;28;20463;-46
2022/07/30 15:16:15;;;;;;;2.27;1.90;;;28.00;38.00;;;;;;5119494;28;20454;-46
2022/07/30 15:18:42;;;;;;;8.83;1.90;;;28.00;37.90;;;;;;5098502;28;20451;-46
2022/07/30 15:21:08;;;;;;;3.50;2.10;;;28.10;38.40;;;;;;5079799;28;20229;-47
2022/07/30 15:23:35;;;;;;;6.00;2.73;;;28.10;37.50;;;;;;5066148;28;20822;-47
2022/07/30 15:26:02;;;;;;;5.27;4.87;;;28.20;37.80;;;;;;5069595;28;20229;-47
2022/07/30 15:28:28;;;;;;;8.27;3.00;;;28.30;37.30;;;;;;5080453;28;20440;-47
2022/07/30 15:30:56;;;;;;;4.97;2.40;;;28.40;37.00;;;;;;5079866;28;20222;-48
2022/07/30 15:33:23;;;;;;;2.80;2.17;;;28.40;36.90;;;;;;5063283;28;20630;-48
2022/07/30 15:35:50;;;;;;;2.63;2.10;;;28.50;36.70;;;;;;5078228;28;20202;-48
2022/07/30 15:38:17;;;;;;;13.47;10.80;;;28.50;36.90;;;;;;5080488;28;20218;-48
2022/07/30 15:40:43;;;;;;;8.70;7.90;;;28.60;36.90;;;;;;5079411;28;20629;-48
2022/07/30 15:43:10;;;;;;;2.50;2.30;;;28.60;36.20;;;;;;5067473;28;20203;-47
2022/07/30 15:46:04;;;;;;;2.43;1.17;;;28.60;35.20;;;;;;5099718;28;20199;-47
2022/07/30 15:48:31;;;;;;;1.73;1.63;;;28.70;34.40;;;;;;5088048;28;20229;-45
2022/07/30 15:51:02;;;;;;;2.20;1.30;;;28.70;34.00;;;;;;5072253;28;20577;-45
2022/07/30 15:53:30;;;;;;;2.30;1.80;;;28.70;34.60;;;;;;5071700;28;20206;-45
2022/07/30 15:55:58;;;;;;;2.50;1.77;;;28.60;33.90;;;;;;5067846;28;20222;-45
2022/07/30 15:58:24;;;;;;;1.70;1.40;;;28.60;34.00;;;;;;5075496;28;20238;-45
2022/07/30 16:00:51;;;;;;;1.50;1.27;;;28.60;34.20;;;;;;5079722;28;20349;-45
2022/07/30 16:03:18;;;;;;;2.83;1.77;;;28.60;33.80;;;;;;5071107;28;20710;-45
2022/07/30 16:05:45;;;;;;;2.00;1.43;;;28.60;34.00;;;;;;5074014;28;20212;-45
2022/07/30 16:08:21;;;;;;;8.30;1.70;;;28.60;33.70;;;;;;5077941;28;20291;-45
2022/07/30 16:10:48;;;;;;;1.70;1.60;;;28.50;33.80;;;;;;5095570;27;20520;-45
2022/07/30 16:13:15;;;;;;;2.37;1.43;;;28.50;34.10;;;;;;5077444;28;20219;-45
2022/07/30 16:15:42;;;;;;;1.53;1.43;;;28.50;33.90;;;;;;5094477;28;20198;-45
2022/07/30 16:18:09;;;;;;;2.57;2.00;;;28.50;33.30;;;;;;5063538;28;20214;-45
2022/07/30 16:20:35;;;;;;;1.73;1.50;;;28.50;32.90;;;;;;5070779;28;20227;-45
2022/07/30 16:23:02;;;;;;;2.73;1.63;;;28.50;33.20;;;;;;5070096;28;20210;-45
2022/07/30 16:25:29;;;;;;;1.93;1.40;;;28.40;32.80;;;;;;5065886;28;20215;-45
2022/07/30 16:27:56;;;;;;;2.03;1.70;;;28.40;33.60;;;;;;5051339;28;20209;-45
2022/07/30 16:30:23;;;;;;;1.70;1.20;;;28.30;33.90;;;;;;5071761;28;20212;-45
2022/07/30 16:32:55;;;;;;;2.77;2.27;;;28.30;33.60;;;;;;5080217;28;20473;-45
2022/07/30 16:35:22;;;;;;;1.53;1.43;;;28.30;33.80;;;;;;5045522;28;20222;-46
2022/07/30 16:37:48;;;;;;;2.53;1.60;;;28.20;34.10;;;;;;5060621;28;22064;-45
2022/07/30 16:40:15;;;;;;;3.60;2.90;;;28.20;34.00;;;;;;5060682;28;20249;-45
2022/07/30 16:42:42;;;;;;;3.47;3.17;;;28.20;34.00;;;;;;5047929;28;20199;-45
2022/07/30 16:45:09;;;;;;;3.27;2.90;;;28.20;34.00;;;;;;5054566;28;20210;-45
2022/07/30 16:47:35;;;;;;;2.70;1.90;;;28.20;34.20;;;;;;5079914;28;20297;-46
2022/07/30 16:50:03;;;;;;;10.00;9.00;;;28.10;34.30;;;;;;5062509;28;20209;-45
2022/07/30 16:52:30;;;;;;;5.80;5.20;;;28.10;34.60;;;;;;5082931;28;20210;-45
2022/07/30 16:54:56;;;;;;;2.30;1.70;;;28.10;34.60;;;;;;5082961;28;20464;-45
2022/07/30 16:57:23;;;;;;;2.00;1.80;;;28.10;35.00;;;;;;5083067;28;20242;-45
2022/07/30 16:59:50;;;;;;;1.77;1.33;;;28.10;34.90;;;;;;5082392;28;20226;-45
2022/07/30 17:02:17;;;;;;;1.70;1.60;;;28.10;34.40;;;;;;5083408;28;20203;-45
2022/07/30 17:04:43;;;;;;;2.80;1.67;;;28.10;34.50;;;;;;5081970;28;20212;-45
2022/07/30 17:07:10;;;;;;;2.13;1.70;;;28.10;34.70;;;;;;5064198;28;20781;-45
2022/07/30 17:09:37;;;;;;;1.87;1.20;;;28.00;34.90;;;;;;5065380;28;20432;-45
2022/07/30 17:12:05;;;;;;;2.40;1.97;;;28.00;34.90;;;;;;5083719;28;20460;-45
2022/07/30 17:14:41;;;;;;;2.13;1.37;;;28.00;34.90;;;;;;5067017;28;20463;-45
2022/07/30 17:17:10;;;;;;;1.73;1.50;;;28.00;34.60;;;;;;5077244;28;20210;-45
2022/07/30 17:19:40;;;;;;;1.93;1.37;;;27.90;34.70;;;;;;5083053;28;20640;-45
2022/07/30 17:22:07;;;;;;;1.50;1.30;;;27.90;35.30;;;;;;5083121;28;20943;-45
2022/07/30 17:24:34;;;;;;;1.40;1.30;;;27.90;35.50;;;;;;5082139;28;20213;-45
2022/07/30 17:27:01;;;;;;;1.50;1.40;;;27.90;35.30;;;;;;5094848;28;20218;-45
2022/07/30 17:29:28;;;;;;;1.50;1.40;;;27.80;35.50;;;;;;5082313;28;20206;-45
2022/07/30 17:31:55;;;;;;;2.07;1.40;;;27.80;35.90;;;;;;5078193;28;20945;-46
2022/07/30 17:34:21;;;;;;;1.70;1.20;;;27.70;36.10;;;;;;5090905;28;20476;-45
2022/07/30 17:36:48;;;;;;;4.23;1.67;;;27.70;36.20;;;;;;5051842;28;20621;-45
2022/07/30 17:39:21;;;;;;;1.40;1.23;;;27.60;36.20;;;;;;5069329;28;20463;-45
2022/07/30 17:42:09;;;;;;;3.10;2.80;;;27.60;36.30;;;;;;5077146;28;20260;-45
2022/07/30 17:44:38;;;;;;;2.50;1.97;;;27.50;36.60;;;;;;5083228;28;20297;-45
2022/07/30 17:47:05;;;;;;;1.80;1.70;;;27.40;36.80;;;;;;5063246;28;20468;-45
2022/07/30 17:49:38;;;;;;;5.03;2.43;;;27.40;37.00;;;;;;5081319;28;20507;-45
2022/07/30 17:52:05;;;;;;;2.50;2.00;;;27.30;37.30;;;;;;5082426;28;20460;-45
2022/07/30 17:54:31;;;;;;;2.03;1.80;;;27.30;37.70;;;;;;5081890;28;20955;-45
2022/07/30 17:56:58;;;;;;;3.03;1.80;;;27.20;37.60;;;;;;5078414;28;20241;-45
2022/07/30 17:59:25;;;;;;;3.20;1.90;;;27.20;37.90;;;;;;5063654;28;20956;-45
2022/07/30 18:01:51;;;;;;;3.80;2.37;;;27.10;38.20;;;;;;5095211;28;20501;-45
2022/07/30 18:04:18;;;;;;;5.10;2.17;;;27.10;38.40;;;;;;5079130;28;21007;-45
2022/07/30 18:06:45;;;;;;;4.87;2.40;;;27.00;38.60;;;;;;5081218;28;21463;-45
2022/07/30 18:09:11;;;;;;;2.63;2.40;;;27.00;39.00;;;;;;5070595;28;20468;-45
2022/07/30 18:11:38;;;;;;;3.03;1.90;;;27.00;39.00;;;;;;5063947;28;20471;-45
2022/07/30 18:14:05;;;;;;;2.97;2.40;;;26.90;39.10;;;;;;5053357;28;20977;-45
2022/07/30 18:16:32;;;;;;;3.03;2.60;;;26.90;39.50;;;;;;5065693;28;20456;-45
2022/07/30 18:18:59;;;;;;;3.30;2.87;;;26.90;39.70;;;;;;5078911;28;20464;-45
2022/07/30 18:21:25;;;;;;;2.77;2.40;;;26.80;39.80;;;;;;5062216;28;20487;-45
2022/07/30 18:23:52;;;;;;;2.40;2.10;;;26.80;39.90;;;;;;5067585;28;21043;-45
2022/07/30 18:26:21;;;;;;;2.20;2.00;;;26.70;40.40;;;;;;5078652;28;20562;-45
2022/07/30 18:28:49;;;;;;;2.70;2.43;;;26.70;40.80;;;;;;5075920;28;20807;-45
2022/07/30 18:31:16;;;;;;;2.90;2.67;;;26.70;40.90;;;;;;5074794;28;20455;-45
2022/07/30 18:33:43;;;;;;;4.47;2.33;;;26.60;41.30;;;;;;5067579;28;20467;-45
2022/07/30 18:36:10;;;;;;;4.73;3.10;;;26.60;41.20;;;;;;5041218;28;20479;-45
2022/07/30 18:38:37;;;;;;;2.60;2.40;;;26.60;41.10;;;;;;5059437;28;20463;-45
2022/07/30 18:41:04;;;;;;;2.97;2.63;;;26.60;41.30;;;;;;5063127;28;20515;-46
2022/07/30 18:43:31;;;;;;;6.03;3.17;;;26.50;41.60;;;;;;5063783;28;20452;-45
2022/07/30 18:46:13;;;;;;;3.20;2.90;;;26.50;41.80;;;;;;5066673;28;20463;-45
2022/07/30 18:48:40;;;;;;;3.50;3.17;;;26.50;42.00;;;;;;5066569;28;20461;-45
2022/07/30 18:51:07;;;;;;;3.30;2.93;;;26.50;42.10;;;;;;5069287;28;20976;-45
2022/07/30 18:53:40;;;;;;;5.53;3.13;;;26.40;42.10;;;;;;5064875;28;20461;-45
2022/07/30 18:56:07;;;;;;;4.00;3.23;;;26.40;42.30;;;;;;5068345;28;20574;-45
2022/07/30 18:58:33;;;;;;;4.93;3.20;;;26.30;42.60;;;;;;5037787;28;20485;-45
2022/07/30 19:01:00;;;;;;;3.20;2.63;;;26.30;42.50;;;;;;5039656;28;20858;-45
2022/07/30 19:03:27;;;;;;;2.87;2.67;;;26.20;42.90;;;;;;5035988;28;20453;-45
2022/07/30 19:05:54;;;;;;;3.43;2.70;;;26.20;43.00;;;;;;5036454;28;20542;-45
2022/07/30 19:08:20;;;;;;;3.63;2.73;;;26.20;43.10;;;;;;5040098;28;20939;-45
2022/07/30 19:10:47;;;;;;;3.23;2.93;;;26.20;43.70;;;;;;5037285;28;20458;-45
2022/07/30 19:13:14;;;;;;;3.00;2.50;;;26.10;43.30;;;;;;5035854;28;20454;-45
2022/07/30 19:15:40;;;;;;;3.30;2.50;;;26.10;43.30;;;;;;5037312;28;20458;-45
2022/07/30 19:18:09;;;;;;;3.03;2.57;;;26.00;43.30;;;;;;5034143;28;20468;-46
2022/07/30 19:20:35;;;;;;;4.23;2.87;;;26.00;43.50;;;;;;5034267;28;20494;-45
2022/07/30 19:23:04;;;;;;;3.90;2.83;;;25.90;43.70;;;;;;5035038;28;20466;-45
2022/07/30 19:25:32;;;;;;;4.07;3.10;;;25.90;43.70;;;;;;5034748;28;20850;-45
2022/07/30 19:28:00;;;;;;;3.80;3.23;;;25.90;44.00;;;;;;5032043;28;20462;-45
2022/07/30 19:30:28;;;;;;;4.90;2.83;;;25.80;43.90;;;;;;5028249;28;20492;-45
2022/07/30 19:33:08;;;;;;;3.27;2.97;;;25.80;44.00;;;;;;5020793;28;21101;-45
2022/07/30 19:35:41;;;;;;;3.30;3.00;;;25.70;44.20;;;;;;5018105;28;20469;-45
2022/07/30 19:38:08;;;;;;;3.33;2.70;;;25.70;44.40;;;;;;5021622;28;21248;-45
2022/07/30 19:40:41;;;;;;;3.63;3.00;;;25.70;44.40;;;;;;5014826;28;20876;-45
2022/07/30 19:43:08;;;;;;;3.60;3.27;;;25.60;44.30;;;;;;5024953;28;20467;-45
2022/07/30 19:45:36;;;;;;;3.60;2.80;;;25.60;44.40;;;;;;5031479;28;22837;-45
2022/07/30 19:48:13;;;;;;;4.33;3.20;;;25.60;44.70;;;;;;5032924;28;20527;-45
2022/07/30 19:50:54;;;;;;;2.83;2.63;;;25.50;44.80;;;;;;5060916;28;20958;-45
2022/07/30 19:53:21;;;;;;;4.80;2.73;;;25.50;45.10;;;;;;5033078;28;20461;-45
2022/07/30 19:55:49;;;;;;;3.37;3.07;;;25.50;45.10;;;;;;5031611;28;20463;-45
2022/07/30 19:58:16;;;;;;;3.33;3.03;;;25.50;44.90;;;;;;5027862;28;20502;-45
2022/07/30 20:00:47;;;;;;;2.97;2.67;;;25.50;45.00;;;;;;5032584;28;20528;-45